Observation data for Sundown on 02/24/2021      Previous  Date  Next       Current Mesonet Observations  Soil Data  Daily Summary Page  Observations in Plain Language
KSDS 240600Z 25009KT 06/M12 A2991 RMK A01 T00571120  RH  027%=      5-min Rain = 0
KSDS 240605Z 25009KT 05/M12 A2991 RMK A01 T00541119  RH  027%=      5-min Rain = 0
KSDS 240610Z 25009KT 05/M12 A2991 RMK A01 T00491119  RH  028%=      5-min Rain = 0
KSDS 240615Z 25009KT 05/M12 A2991 RMK A01 T00461118  RH  029%=      5-min Rain = 0
KSDS 240620Z 26009KT 04/M12 A2991 RMK A01 T00421118  RH  030%=      5-min Rain = 0
KSDS 240625Z 26008KT 04/M12 A2991 RMK A01 T00371118  RH  031%=      5-min Rain = 0
KSDS 240630Z 26008KT 04/M12 A2991 RMK A01 T00351118  RH  032%=      5-min Rain = 0
KSDS 240635Z 26008KT 03/M12 A2991 RMK A01 T00311117  RH  033%=      5-min Rain = 0
KSDS 240640Z 26008KT 03/M12 A2991 RMK A01 T00281116  RH  034%=      5-min Rain = 0
KSDS 240645Z 26009KT 03/M12 A2991 RMK A01 T00251115  RH  035%=      5-min Rain = 0
KSDS 240650Z 25009KT 02/M12 A2991 RMK A01 T00231115  RH  035%=      5-min Rain = 0
KSDS 240655Z 26009KT 02/M12 A2991 RMK A01 T00221115  RH  035%=      5-min Rain = 0
KSDS 240700Z 25009KT 02/M12 A2991 RMK A01 T00231115  RH  035%=      5-min Rain = 0
KSDS 240705Z 26009KT 03/M11 A2991 RMK A01 T00261113  RH  035%=      5-min Rain = 0
KSDS 240710Z 26009KT 03/M11 A2992 RMK A01 T00281113  RH  035%=      5-min Rain = 0
KSDS 240715Z 26009KT 03/M11 A2992 RMK A01 T00301113  RH  034%=      5-min Rain = 0
KSDS 240720Z 26009KT 03/M11 A2992 RMK A01 T00311113  RH  034%=      5-min Rain = 0
KSDS 240725Z 28009KT 03/M11 A2992 RMK A01 T00321112  RH  034%=      5-min Rain = 0
KSDS 240730Z 27009KT 04/M11 A2992 RMK A01 T00361112  RH  033%=      5-min Rain = 0
KSDS 240735Z 28010KT 04/M11 A2992 RMK A01 T00401112  RH  032%=      5-min Rain = 0
KSDS 240740Z 27009KT 04/M11 A2992 RMK A01 T00401112  RH  032%=      5-min Rain = 0
KSDS 240745Z 28010KT 04/M11 A2992 RMK A01 T00411112  RH  032%=      5-min Rain = 0
KSDS 240750Z 28010KT 04/M11 A2992 RMK A01 T00431112  RH  031%=      5-min Rain = 0
KSDS 240755Z 28010KT 04/M11 A2992 RMK A01 T00411112  RH  032%=      5-min Rain = 0
KSDS 240800Z 28010KT 04/M11 A2993 RMK A01 T00391111  RH  033%=      5-min Rain = 0
KSDS 240805Z 28010KT 04/M11 A2993 RMK A01 T00371110  RH  033%=      5-min Rain = 0
KSDS 240810Z 28010KT 04/M11 A2993 RMK A01 T00371109  RH  033%=      5-min Rain = 0
KSDS 240815Z 28010KT 04/M11 A2993 RMK A01 T00391108  RH  033%=      5-min Rain = 0
KSDS 240820Z 28010KT 04/M11 A2993 RMK A01 T00421109  RH  032%=      5-min Rain = 0
KSDS 240825Z 28010KT 04/M11 A2993 RMK A01 T00431109  RH  032%=      5-min Rain = 0
KSDS 240830Z 28010KT 04/M11 A2993 RMK A01 T00441110  RH  032%=      5-min Rain = 0
KSDS 240835Z 28011KT 04/M11 A2994 RMK A01 T00441110  RH  031%=      5-min Rain = 0
KSDS 240840Z 29011KT 05/M11 A2994 RMK A01 T00491110  RH  030%=      5-min Rain = 0
KSDS 240845Z 30011KT 05/M11 A2994 RMK A01 T00491110  RH  031%=      5-min Rain = 0
KSDS 240850Z 30011KT 05/M11 A2995 RMK A01 T00531109  RH  030%=      5-min Rain = 0
KSDS 240855Z 31013G19KT 06/M11 A2995 RMK A01 T00561108  RH  029%=      5-min Rain = 0
KSDS 240900Z 31013G19KT 07/M11 A2995 RMK A01 T00671109  RH  027%=      5-min Rain = 0
KSDS 240905Z 30013KT 08/M11 A2995 RMK A01 T00771110  RH  025%=      5-min Rain = 0
KSDS 240910Z 30012KT 08/M11 A2995 RMK A01 T00771110  RH  025%=      5-min Rain = 0
KSDS 240915Z 33015KT 07/M11 A2997 RMK A01 T00711109  RH  026%=      5-min Rain = 0
KSDS 240920Z 33016KT 07/M11 A2998 RMK A01 T00701107  RH  027%=      5-min Rain = 0
KSDS 240925Z 33016G21KT 07/M11 A2998 RMK A01 T00701105  RH  027%=      5-min Rain = 0
KSDS 240930Z 34015G21KT 07/M10 A2998 RMK A01 T00681099  RH  029%=      5-min Rain = 0
KSDS 240935Z 34016KT 07/M09 A2999 RMK A01 T00701092  RH  031%=      5-min Rain = 0
KSDS 240940Z 34016KT 07/M08 A2999 RMK A01 T00691084  RH  033%=      5-min Rain = 0
KSDS 240945Z 35015KT 07/M08 A2999 RMK A01 T00681078  RH  035%=      5-min Rain = 0
KSDS 240950Z 35015KT 07/M07 A2999 RMK A01 T00681071  RH  036%=      5-min Rain = 0
KSDS 240955Z 36016KT 07/M06 A30 RMK A01 T00701064  RH  038%=      5-min Rain = 0
KSDS 241000Z 36015G20KT 07/M06 A30 RMK A01 T00681062  RH  039%=      5-min Rain = 0
KSDS 241005Z 36013KT 06/M06 A30 RMK A01 T00641062  RH  040%=      5-min Rain = 0
KSDS 241010Z 00013G19KT 06/M06 A30 RMK A01 T00631059  RH  041%=      5-min Rain = 0
KSDS 241015Z 01012KT 06/M06 A3001 RMK A01 T00611058  RH  042%=      5-min Rain = 0
KSDS 241020Z 01012KT 06/M06 A3001 RMK A01 T00581056  RH  044%=      5-min Rain = 0
KSDS 241025Z 01013KT 06/M06 A3002 RMK A01 T00571055  RH  045%=      5-min Rain = 0
KSDS 241030Z 01016G24KT 06/M05 A3002 RMK A01 T00591052  RH  045%=      5-min Rain = 0
KSDS 241035Z 01016G22KT 06/M05 A3002 RMK A01 T00611051  RH  045%=      5-min Rain = 0
KSDS 241040Z 01017G23KT 06/M05 A3002 RMK A01 T00601051  RH  045%=      5-min Rain = 0
KSDS 241045Z 01016G21KT 06/M05 A3003 RMK A01 T00581051  RH  045%=      5-min Rain = 0
KSDS 241050Z 01015G20KT 06/M05 A3003 RMK A01 T00561051  RH  046%=      5-min Rain = 0
KSDS 241055Z 01013KT 05/M05 A3004 RMK A01 T00521050  RH  048%=      5-min Rain = 0
KSDS 241100Z 00014KT 05/M05 A3004 RMK A01 T00511050  RH  048%=      5-min Rain = 0
KSDS 241105Z 00014KT 05/M05 A3004 RMK A01 T00511049  RH  048%=      5-min Rain = 0
KSDS 241110Z 36013KT 05/M05 A3005 RMK A01 T00491049  RH  049%=      5-min Rain = 0
KSDS 241115Z 00013KT 05/M05 A3005 RMK A01 T00491049  RH  049%=      5-min Rain = 0
KSDS 241120Z 00013G18KT 05/M05 A3005 RMK A01 T00481050  RH  049%=      5-min Rain = 0
KSDS 241125Z 00014KT 05/M05 A3005 RMK A01 T00481050  RH  049%=      5-min Rain = 0
KSDS 241130Z 01015G20KT 05/M05 A3005 RMK A01 T00461052  RH  049%=      5-min Rain = 0
KSDS 241135Z 01014G19KT 05/M05 A3005 RMK A01 T00451053  RH  049%=      5-min Rain = 0
KSDS 241140Z 01014G19KT 04/M05 A3006 RMK A01 T00441054  RH  049%=      5-min Rain = 0
KSDS 241145Z 01015KT 04/M06 A3006 RMK A01 T00431055  RH  049%=      5-min Rain = 0
KSDS 241150Z 01014KT 04/M06 A3006 RMK A01 T00431056  RH  049%=      5-min Rain = 0
KSDS 241155Z 01013KT 04/M06 A3007 RMK A01 T00411056  RH  049%=      5-min Rain = 0
KSDS 241200Z 00012KT 04/M06 A3007 RMK A01 T00401056  RH  050%=      5-min Rain = 0
KSDS 241205Z 00012KT 04/M06 A3007 RMK A01 T00381056  RH  050%=      5-min Rain = 0
KSDS 241210Z 36012G17KT 04/M06 A3008 RMK A01 T00381055  RH  051%=      5-min Rain = 0
KSDS 241215Z 36014G19KT 04/M06 A3007 RMK A01 T00391056  RH  050%=      5-min Rain = 0
KSDS 241220Z 00014KT 04/M06 A3008 RMK A01 T00381056  RH  050%=      5-min Rain = 0
KSDS 241225Z 00013KT 04/M06 A3008 RMK A01 T00381057  RH  050%=      5-min Rain = 0
KSDS 241230Z 00013KT 04/M06 A3008 RMK A01 T00371057  RH  050%=      5-min Rain = 0
KSDS 241235Z 00011KT 04/M06 A3008 RMK A01 T00351057  RH  051%=      5-min Rain = 0
KSDS 241240Z 36011KT 03/M06 A3009 RMK A01 T00321057  RH  052%=      5-min Rain = 0
KSDS 241245Z 36011G16KT 03/M06 A3009 RMK A01 T00301056  RH  053%=      5-min Rain = 0
KSDS 241250Z 36011KT 03/M06 A3009 RMK A01 T00301055  RH  054%=      5-min Rain = 0
KSDS 241255Z 36011G16KT 03/M05 A3009 RMK A01 T00291054  RH  055%=      5-min Rain = 0
KSDS 241300Z 36012KT 03/M05 A301 RMK A01 T00291053  RH  055%=      5-min Rain = 0
KSDS 241305Z 36012KT 03/M05 A301 RMK A01 T00291053  RH  055%=      5-min Rain = 0
KSDS 241310Z 36012KT 03/M05 A301 RMK A01 T00281054  RH  055%=      5-min Rain = 0
KSDS 241315Z 36012KT 03/M05 A301 RMK A01 T00271054  RH  055%=      5-min Rain = 0
KSDS 241320Z 36012KT 03/M05 A301 RMK A01 T00261054  RH  056%=      5-min Rain = 0
KSDS 241325Z 36012KT 03/M05 A3011 RMK A01 T00261054  RH  056%=      5-min Rain = 0
KSDS 241330Z 36012KT 03/M06 A3011 RMK A01 T00261055  RH  056%=      5-min Rain = 0
KSDS 241335Z 36012KT 03/M06 A3011 RMK A01 T00271055  RH  055%=      5-min Rain = 0
KSDS 241340Z 36012KT 03/M06 A3012 RMK A01 T00281055  RH  055%=      5-min Rain = 0
KSDS 241345Z 36011KT 03/M06 A3012 RMK A01 T00281055  RH  055%=      5-min Rain = 0
KSDS 241350Z 36013G19KT 03/M06 A3012 RMK A01 T00291055  RH  054%=      5-min Rain = 0
KSDS 241355Z 36012KT 03/M06 A3012 RMK A01 T00311055  RH  053%=      5-min Rain = 0
KSDS 241400Z 36011KT 03/M05 A3013 RMK A01 T00331054  RH  053%=      5-min Rain = 0
KSDS 241405Z 36011G16KT 04/M05 A3013 RMK A01 T00361054  RH  052%=      5-min Rain = 0
KSDS 241410Z 00012KT 04/M05 A3013 RMK A01 T00381054  RH  051%=      5-min Rain = 0
KSDS 241415Z 00013G18KT 04/M05 A3014 RMK A01 T00401054  RH  050%=      5-min Rain = 0
KSDS 241420Z 36014KT 04/M06 A3014 RMK A01 T00421055  RH  049%=      5-min Rain = 0
KSDS 241425Z 36013KT 04/M05 A3015 RMK A01 T00441054  RH  049%=      5-min Rain = 0
KSDS 241430Z 00014KT 05/M05 A3015 RMK A01 T00461054  RH  048%=      5-min Rain = 0
KSDS 241435Z 01015G20KT 05/M06 A3015 RMK A01 T00481055  RH  048%=      5-min Rain = 0
KSDS 241440Z 01014G19KT 05/M06 A3016 RMK A01 T00491055  RH  047%=      5-min Rain = 0
KSDS 241445Z 01014KT 05/M05 A3016 RMK A01 T00521054  RH  046%=      5-min Rain = 0
KSDS 241450Z 01017G22KT 05/M06 A3016 RMK A01 T00541055  RH  045%=      5-min Rain = 0
KSDS 241455Z 01016G23KT 06/M06 A3017 RMK A01 T00551055  RH  045%=      5-min Rain = 0
KSDS 241500Z 01019G24KT 06/M06 A3017 RMK A01 T00571055  RH  044%=      5-min Rain = 0
KSDS 241505Z 02017G24KT 06/M06 A3017 RMK A01 T00601055  RH  044%=      5-min Rain = 0
KSDS 241510Z 02018G26KT 06/M05 A3017 RMK A01 T00611054  RH  043%=      5-min Rain = 0
KSDS 241515Z 01019KT 06/M05 A3017 RMK A01 T00631054  RH  043%=      5-min Rain = 0
KSDS 241520Z 02016G21KT 06/M05 A3018 RMK A01 T00641052  RH  043%=      5-min Rain = 0
KSDS 241525Z 01018KT 06/M05 A3018 RMK A01 T00641052  RH  043%=      5-min Rain = 0
KSDS 241530Z 01019KT 06/M05 A3018 RMK A01 T00641052  RH  043%=      5-min Rain = 0
KSDS 241535Z 01017G22KT 07/M05 A3019 RMK A01 T00661051  RH  043%=      5-min Rain = 0
KSDS 241540Z 01018KT 07/M05 A3019 RMK A01 T00681052  RH  042%=      5-min Rain = 0
KSDS 241545Z 02018KT 07/M05 A3019 RMK A01 T00681052  RH  042%=      5-min Rain = 0
KSDS 241550Z 02016KT 07/M05 A3019 RMK A01 T00701052  RH  042%=      5-min Rain = 0
KSDS 241555Z 01015KT 07/M05 A3019 RMK A01 T00741051  RH  041%=      5-min Rain = 0
KSDS 241600Z 02016G22KT 07/M05 A3019 RMK A01 T00741051  RH  041%=      5-min Rain = 0
KSDS 241605Z 02017G22KT 08/M05 A3019 RMK A01 T00761051  RH  040%=      5-min Rain = 0
KSDS 241610Z 02016G21KT 08/M05 A3019 RMK A01 T00791050  RH  040%=      5-min Rain = 0
KSDS 241615Z 02016G21KT 08/M05 A3019 RMK A01 T00811050  RH  039%=      5-min Rain = 0
KSDS 241620Z 02016G22KT 08/M05 A3019 RMK A01 T00831050  RH  039%=      5-min Rain = 0
KSDS 241625Z 03015G20KT 08/M05 A3019 RMK A01 T00841050  RH  038%=      5-min Rain = 0
KSDS 241630Z 03015G20KT 09/M05 A3019 RMK A01 T00861050  RH  038%=      5-min Rain = 0
KSDS 241635Z 02015G20KT 09/M05 A3019 RMK A01 T00861051  RH  037%=      5-min Rain = 0
KSDS 241640Z 03014G21KT 09/M05 A3019 RMK A01 T00851051  RH  038%=      5-min Rain = 0
KSDS 241645Z 03013KT 09/M05 A3019 RMK A01 T00891051  RH  037%=      5-min Rain = 0
KSDS 241650Z 02014G20KT 10/M05 A3019 RMK A01 T00951052  RH  035%=      5-min Rain = 0
KSDS 241655Z 03016KT 09/M05 A3019 RMK A01 T00931054  RH  035%=      5-min Rain = 0
KSDS 241700Z 04013G19KT 09/M06 A3019 RMK A01 T00931055  RH  035%=      5-min Rain = 0
KSDS 241705Z 04015KT 10/M06 A3019 RMK A01 T00951057  RH  034%=      5-min Rain = 0
KSDS 241710Z 04014G19KT 10/M06 A3019 RMK A01 T00981058  RH  033%=      5-min Rain = 0
KSDS 241715Z 03014G19KT 10/M06 A3019 RMK A01 T00981058  RH  033%=      5-min Rain = 0
KSDS 241720Z 03015G20KT 10/M06 A3019 RMK A01 T01011059  RH  032%=      5-min Rain = 0
KSDS 241725Z 03014G19KT 10/M06 A3019 RMK A01 T01021059  RH  032%=      5-min Rain = 0
KSDS 241730Z 03014G20KT 10/M06 A3019 RMK A01 T01031060  RH  031%=      5-min Rain = 0
KSDS 241735Z 04013G18KT 11/M06 A3019 RMK A01 T01071060  RH  030%=      5-min Rain = 0
KSDS 241740Z 04013KT 11/M06 A3019 RMK A01 T01071060  RH  030%=      5-min Rain = 0
KSDS 241745Z 04013G18KT 11/M06 A3018 RMK A01 T01051062  RH  030%=      5-min Rain = 0
KSDS 241750Z 05011G16KT 11/M06 A3018 RMK A01 T01081062  RH  030%=      5-min Rain = 0
KSDS 241755Z 04012G19KT 11/M06 A3018 RMK A01 T01101061  RH  029%=      5-min Rain = 0
KSDS 241800Z 06010G16KT 11/M06 A3018 RMK A01 T01101062  RH  029%=      5-min Rain = 0
KSDS 241805Z 05009G15KT 11/M06 A3018 RMK A01 T01131059  RH  029%=      5-min Rain = 0
KSDS 241810Z 05010KT 12/M06 A3018 RMK A01 T01151059  RH  029%=      5-min Rain = 0
KSDS 241815Z 06010KT 12/M06 A3018 RMK A01 T01151058  RH  029%=      5-min Rain = 0
KSDS 241820Z 07011KT 12/M06 A3018 RMK A01 T01171058  RH  029%=      5-min Rain = 0
KSDS 241825Z 06011G16KT 12/M06 A3018 RMK A01 T01211058  RH  028%=      5-min Rain = 0
KSDS 241830Z 05009KT 12/M06 A3018 RMK A01 T01201058  RH  028%=      5-min Rain = 0
KSDS 241835Z 06010G17KT 12/M06 A3018 RMK A01 T01211059  RH  028%=      5-min Rain = 0
KSDS 241840Z 05011KT 12/M06 A3018 RMK A01 T01211059  RH  028%=      5-min Rain = 0
KSDS 241845Z 05009G14KT 13/M06 A3017 RMK A01 T01251059  RH  027%=      5-min Rain = 0
KSDS 241850Z 06009G15KT 13/M06 A3017 RMK A01 T01251061  RH  027%=      5-min Rain = 0
KSDS 241855Z 07009G15KT 13/M06 A3017 RMK A01 T01261061  RH  027%=      5-min Rain = 0
KSDS 241900Z 07008G13KT 13/M06 A3017 RMK A01 T01291061  RH  026%=      5-min Rain = 0
KSDS 241905Z 05007G13KT 13/M06 A3017 RMK A01 T01261063  RH  026%=      5-min Rain = 0
KSDS 241910Z 07007G12KT 13/M06 A3017 RMK A01 T01271063  RH  026%=      5-min Rain = 0
KSDS 241915Z 05011G17KT 13/M07 A3017 RMK A01 T01321066  RH  025%=      5-min Rain = 0
KSDS 241920Z 09007G13KT 13/M07 A3016 RMK A01 T01321065  RH  025%=      5-min Rain = 0
KSDS 241925Z 08008G13KT 13/M07 A3015 RMK A01 T01321066  RH  025%=      5-min Rain = 0
KSDS 241930Z 06009G15KT 13/M07 A3015 RMK A01 T01331067  RH  024%=      5-min Rain = 0
KSDS 241935Z 08010G15KT 13/M07 A3014 RMK A01 T01321067  RH  024%=      5-min Rain = 0
KSDS 241940Z 08007KT 13/M07 A3014 RMK A01 T01331066  RH  025%=      5-min Rain = 0
KSDS 241945Z 07006G15KT 13/M07 A3013 RMK A01 T01331066  RH  025%=      5-min Rain = 0
KSDS 241950Z 09008KT 14/M07 A3013 RMK A01 T01351065  RH  024%=      5-min Rain = 0
KSDS 241955Z 11007G15KT 14/M06 A3013 RMK A01 T01421063  RH  024%=      5-min Rain = 0
KSDS 242000Z 09010G15KT 15/M06 A3013 RMK A01 T01461064  RH  023%=      5-min Rain = 0
KSDS 242005Z 07008G14KT 14/M07 A3012 RMK A01 T01421065  RH  023%=      5-min Rain = 0
KSDS 242010Z 08007G15KT 14/M06 A3012 RMK A01 T01421064  RH  023%=      5-min Rain = 0
KSDS 242015Z 09005KT 14/M07 A3012 RMK A01 T01431065  RH  023%=      5-min Rain = 0
KSDS 242020Z 08008KT 15/M07 A3012 RMK A01 T01451065  RH  023%=      5-min Rain = 0
KSDS 242025Z 09010KT 15/M06 A3012 RMK A01 T01461064  RH  023%=      5-min Rain = 0
KSDS 242030Z 12008KT 15/M06 A3011 RMK A01 T01471064  RH  023%=      5-min Rain = 0
KSDS 242035Z 12008KT 14/M06 A3011 RMK A01 T01431064  RH  023%=      5-min Rain = 0
KSDS 242040Z 10006G13KT 14/M06 A3011 RMK A01 T01441064  RH  023%=      5-min Rain = 0
KSDS 242045Z 09009KT 15/M06 A301 RMK A01 T01451063  RH  023%=      5-min Rain = 0
KSDS 242050Z 11007G12KT 15/M06 A301 RMK A01 T01471062  RH  023%=      5-min Rain = 0
KSDS 242055Z 10008G13KT 15/M06 A301 RMK A01 T01521061  RH  023%=      5-min Rain = 0
KSDS 242100Z 12006KT 15/M06 A301 RMK A01 T01491062  RH  023%=      5-min Rain = 0
KSDS 242105Z 10007G12KT 15/M06 A301 RMK A01 T01501061  RH  023%=      5-min Rain = 0
KSDS 242110Z 12006KT 15/M06 A301 RMK A01 T01521060  RH  023%=      5-min Rain = 0
KSDS 242115Z 10008G13KT 15/M06 A301 RMK A01 T01491060  RH  023%=      5-min Rain = 0
KSDS 242120Z 11005G10KT 15/M06 A301 RMK A01 T01481060  RH  023%=      5-min Rain = 0
KSDS 242125Z 13008G13KT 16/M06 A301 RMK A01 T01551059  RH  022%=      5-min Rain = 0
KSDS 242130Z 10007G13KT 15/M06 A301 RMK A01 T01511059  RH  023%=      5-min Rain = 0
KSDS 242135Z 12008KT 16/M06 A301 RMK A01 T01571058  RH  022%=      5-min Rain = 0
KSDS 242140Z 13005KT 16/M06 A301 RMK A01 T01551059  RH  022%=      5-min Rain = 0
KSDS 242145Z 10007KT 15/M06 A3009 RMK A01 T01541059  RH  023%=      5-min Rain = 0
KSDS 242150Z 10008G13KT 15/M06 A3009 RMK A01 T01531058  RH  023%=      5-min Rain = 0
KSDS 242155Z 11008KT 15/M06 A3009 RMK A01 T01541058  RH  023%=      5-min Rain = 0
KSDS 242200Z 11006KT 16/M06 A3009 RMK A01 T01551059  RH  022%=      5-min Rain = 0
KSDS 242205Z 16006G11KT 16/M06 A3009 RMK A01 T01581058  RH  022%=      5-min Rain = 0
KSDS 242210Z 14008KT 16/M06 A3009 RMK A01 T01591059  RH  022%=      5-min Rain = 0
KSDS 242215Z 11010G15KT 16/M06 A3008 RMK A01 T01591056  RH  022%=      5-min Rain = 0
KSDS 242220Z 12007KT 16/M06 A3008 RMK A01 T01571056  RH  023%=      5-min Rain = 0
KSDS 242225Z 13009G16KT 16/M06 A3008 RMK A01 T01581056  RH  023%=      5-min Rain = 0
KSDS 242230Z 14010KT 16/M06 A3008 RMK A01 T01581058  RH  022%=      5-min Rain = 0
KSDS 242235Z 14008G13KT 16/M06 A3009 RMK A01 T01561058  RH  022%=      5-min Rain = 0
KSDS 242240Z 13006KT 16/M06 A3008 RMK A01 T01571055  RH  023%=      5-min Rain = 0
KSDS 242245Z 12008G14KT 16/M06 A3008 RMK A01 T01581055  RH  023%=      5-min Rain = 0
KSDS 242250Z 13010G15KT 16/M06 A3008 RMK A01 T01591055  RH  023%=      5-min Rain = 0
KSDS 242255Z 14010KT 16/M06 A3008 RMK A01 T01571056  RH  023%=      5-min Rain = 0
KSDS 242300Z 14007KT 16/M06 A3008 RMK A01 T01571055  RH  023%=      5-min Rain = 0
KSDS 242305Z 13009KT 16/M06 A3007 RMK A01 T01601055  RH  022%=      5-min Rain = 0
KSDS 242310Z 12008G14KT 16/M05 A3008 RMK A01 T01591054  RH  023%=      5-min Rain = 0
KSDS 242315Z 12007G12KT 16/M05 A3008 RMK A01 T01571053  RH  023%=      5-min Rain = 0
KSDS 242320Z 15009G14KT 16/M05 A3008 RMK A01 T01571054  RH  023%=      5-min Rain = 0
KSDS 242325Z 14009KT 15/M05 A3008 RMK A01 T01541053  RH  024%=      5-min Rain = 0
KSDS 242330Z 12008KT 15/M05 A3008 RMK A01 T01511053  RH  024%=      5-min Rain = 0
KSDS 242335Z 12010KT 15/M05 A3008 RMK A01 T01511051  RH  025%=      5-min Rain = 0
KSDS 242340Z 12010KT 15/M05 A3007 RMK A01 T01521051  RH  024%=      5-min Rain = 0
KSDS 242345Z 12010KT 15/M05 A3008 RMK A01 T01491052  RH  025%=      5-min Rain = 0
KSDS 242350Z 13009KT 15/M05 A3008 RMK A01 T01471052  RH  025%=      5-min Rain = 0
KSDS 242355Z 13008KT 14/M05 A3008 RMK A01 T01431051  RH  026%=      5-min Rain = 0
KSDS 250000Z 12008KT 14/M05 A3008 RMK A01 T01421051  RH  026%=      5-min Rain = 0
KSDS 250005Z 12007KT 14/M05 A3009 RMK A01 T01421050  RH  026%=      5-min Rain = 0
KSDS 250010Z 12009KT 14/M05 A3008 RMK A01 T01391050  RH  027%=      5-min Rain = 0
KSDS 250015Z 12008KT 14/M05 A3009 RMK A01 T01351049  RH  028%=      5-min Rain = 0
KSDS 250020Z 12008KT 13/M05 A3009 RMK A01 T01331048  RH  028%=      5-min Rain = 0
KSDS 250025Z 12007KT 13/M05 A3009 RMK A01 T01291047  RH  029%=      5-min Rain = 0
KSDS 250030Z 12007KT 13/M05 A3009 RMK A01 T01261047  RH  030%=      5-min Rain = 0
KSDS 250035Z 11007KT 12/M05 A3009 RMK A01 T01241047  RH  030%=      5-min Rain = 0
KSDS 250040Z 11007KT 12/M05 A3009 RMK A01 T01181047  RH  031%=      5-min Rain = 0
KSDS 250045Z 10007KT 11/M05 A3009 RMK A01 T01131046  RH  033%=      5-min Rain = 0
KSDS 250050Z 10007KT 11/M05 A301 RMK A01 T01071045  RH  034%=      5-min Rain = 0
KSDS 250055Z 10007KT 10/M05 A301 RMK A01 T01021045  RH  035%=      5-min Rain = 0
KSDS 250100Z 10007KT 10/M05 A301 RMK A01 T00981046  RH  036%=      5-min Rain = 0
KSDS 250105Z 10008KT 10/M05 A301 RMK A01 T00951045  RH  037%=      5-min Rain = 0
KSDS 250110Z 09008KT 09/M05 A3011 RMK A01 T00921045  RH  038%=      5-min Rain = 0
KSDS 250115Z 10009KT 09/M04 A3011 RMK A01 T00911044  RH  038%=      5-min Rain = 0
KSDS 250120Z 10008KT 09/M04 A3011 RMK A01 T00911044  RH  038%=      5-min Rain = 0
KSDS 250125Z 10009KT 09/M04 A3011 RMK A01 T00881044  RH  039%=      5-min Rain = 0
KSDS 250130Z 09008KT 09/M04 A3011 RMK A01 T00881044  RH  039%=      5-min Rain = 0
KSDS 250135Z 09008KT 09/M05 A3012 RMK A01 T00851045  RH  039%=      5-min Rain = 0
KSDS 250140Z 09008KT 08/M05 A3012 RMK A01 T00841046  RH  040%=      5-min Rain = 0
KSDS 250145Z 09009KT 08/M05 A3012 RMK A01 T00831046  RH  040%=      5-min Rain = 0
KSDS 250150Z 09009KT 08/M05 A3012 RMK A01 T00831046  RH  040%=      5-min Rain = 0
KSDS 250155Z 09009KT 08/M05 A3012 RMK A01 T00831047  RH  040%=      5-min Rain = 0
KSDS 250200Z 09009KT 08/M05 A3012 RMK A01 T00831048  RH  040%=      5-min Rain = 0
KSDS 250205Z 09010KT 08/M05 A3012 RMK A01 T00821048  RH  039%=      5-min Rain = 0
KSDS 250210Z 09010KT 08/M05 A3012 RMK A01 T00841049  RH  039%=      5-min Rain = 0
KSDS 250215Z 09010KT 08/M05 A3012 RMK A01 T00841050  RH  038%=      5-min Rain = 0
KSDS 250220Z 09011KT 09/M05 A3012 RMK A01 T00851051  RH  038%=      5-min Rain = 0
KSDS 250225Z 09010KT 09/M05 A3012 RMK A01 T00861052  RH  037%=      5-min Rain = 0
KSDS 250230Z 09011KT 09/M05 A3012 RMK A01 T00871053  RH  037%=      5-min Rain = 0
KSDS 250235Z 09011KT 09/M05 A3012 RMK A01 T00871054  RH  037%=      5-min Rain = 0
KSDS 250240Z 09011KT 09/M06 A3012 RMK A01 T00861055  RH  037%=      5-min Rain = 0
KSDS 250245Z 09011KT 09/M06 A3012 RMK A01 T00851055  RH  037%=      5-min Rain = 0
KSDS 250250Z 09011KT 08/M06 A3012 RMK A01 T00831055  RH  037%=      5-min Rain = 0
KSDS 250255Z 09011KT 08/M06 A3013 RMK A01 T00821056  RH  037%=      5-min Rain = 0
KSDS 250300Z 09011KT 08/M06 A3012 RMK A01 T00801056  RH  038%=      5-min Rain = 0
KSDS 250305Z 08011KT 08/M06 A3012 RMK A01 T00801056  RH  038%=      5-min Rain = 0
KSDS 250310Z 09010KT 08/M06 A3013 RMK A01 T00781056  RH  038%=      5-min Rain = 0
KSDS 250315Z 08010KT 08/M06 A3013 RMK A01 T00761056  RH  039%=      5-min Rain = 0
KSDS 250320Z 09010KT 07/M06 A3013 RMK A01 T00741056  RH  039%=      5-min Rain = 0
KSDS 250325Z 09010KT 07/M06 A3013 RMK A01 T00721055  RH  040%=      5-min Rain = 0
KSDS 250330Z 09011G16KT 07/M06 A3013 RMK A01 T00721055  RH  040%=      5-min Rain = 0
KSDS 250335Z 09012KT 07/M05 A3013 RMK A01 T00731054  RH  040%=      5-min Rain = 0
KSDS 250340Z 09011G16KT 07/M05 A3014 RMK A01 T00731053  RH  040%=      5-min Rain = 0
KSDS 250345Z 09011KT 07/M05 A3014 RMK A01 T00731053  RH  041%=      5-min Rain = 0
KSDS 250350Z 09012KT 07/M05 A3014 RMK A01 T00711053  RH  041%=      5-min Rain = 0
KSDS 250355Z 09012KT 07/M05 A3014 RMK A01 T00701053  RH  041%=      5-min Rain = 0
KSDS 250400Z 09012G17KT 07/M05 A3015 RMK A01 T00701054  RH  041%=      5-min Rain = 0
KSDS 250405Z 09011KT 07/M06 A3015 RMK A01 T00681055  RH  041%=      5-min Rain = 0
KSDS 250410Z 09011KT 07/M06 A3015 RMK A01 T00671055  RH  042%=      5-min Rain = 0
KSDS 250415Z 09011KT 07/M06 A3015 RMK A01 T00671056  RH  041%=      5-min Rain = 0
KSDS 250420Z 09012KT 07/M06 A3015 RMK A01 T00661057  RH  041%=      5-min Rain = 0
KSDS 250425Z 09012KT 07/M06 A3015 RMK A01 T00651057  RH  041%=      5-min Rain = 0
KSDS 250430Z 09013KT 07/M06 A3016 RMK A01 T00661058  RH  041%=      5-min Rain = 0
KSDS 250435Z 10013G18KT 07/M06 A3016 RMK A01 T00661059  RH  040%=      5-min Rain = 0
KSDS 250440Z 10014G19KT 07/M06 A3016 RMK A01 T00651060  RH  041%=      5-min Rain = 0
KSDS 250445Z 10013KT 06/M06 A3016 RMK A01 T00641060  RH  041%=      5-min Rain = 0
KSDS 250450Z 10013KT 06/M06 A3017 RMK A01 T00631061  RH  041%=      5-min Rain = 0
KSDS 250455Z 09013G18KT 06/M06 A3017 RMK A01 T00631062  RH  041%=      5-min Rain = 0
KSDS 250500Z 10013G18KT 06/M06 A3017 RMK A01 T00621062  RH  041%=      5-min Rain = 0
KSDS 250505Z 10013KT 06/M06 A3016 RMK A01 T00611063  RH  041%=      5-min Rain = 0
KSDS 250510Z 10013KT 06/M06 A3017 RMK A01 T00581062  RH  042%=      5-min Rain = 0
KSDS 250515Z 10012KT 06/M06 A3017 RMK A01 T00571062  RH  042%=      5-min Rain = 0
KSDS 250520Z 10012KT 05/M06 A3017 RMK A01 T00541062  RH  043%=      5-min Rain = 0
KSDS 250525Z 11012KT 05/M06 A3017 RMK A01 T00521062  RH  044%=      5-min Rain = 0
KSDS 250530Z 11011G16KT 05/M06 A3017 RMK A01 T00511062  RH  044%=      5-min Rain = 0
KSDS 250535Z 10011KT 05/M06 A3017 RMK A01 T00501062  RH  044%=      5-min Rain = 0
KSDS 250540Z 10011KT 05/M06 A3017 RMK A01 T00481062  RH  045%=      5-min Rain = 0
KSDS 250545Z 10011KT 05/M06 A3017 RMK A01 T00471061  RH  045%=      5-min Rain = 0
KSDS 250550Z 10010KT 05/M06 A3017 RMK A01 T00451061  RH  046%=      5-min Rain = 0
KSDS 250555Z 10010KT 04/M06 A3016 RMK A01 T00441061  RH  047%=      5-min Rain = 0

Page generated in 0.0082 seconds.